Spirit Of Vi — CFL2070 — position and weather

sailwx.info

Track history (hours):
 
Tides and Currents Weather Stations Pressure Air Temp Water Temp Dewpoint Dewpoint Depression Visibility Wind Speed Wind Dir Waves Ship Positions

Spirit Of Vi

Last reported at 2017-Oct-18 05:27 UTC. Time now 2017-Oct-18 09:16 UTC.
Position N 48°41' W 123°25'.

Length 168 m; draft 5 m.

Type: Ship. MMSI: 316001269.

Date/timePositionNaut miles runAvg speedWind from/ knotsBaromVisibWave heightAir tempDewpointWater temp
2017-Oct-18 05:27N 48°41' W 123°25'614.3
2017-Oct-18 05:00N 48°47' W 123°21'815.5
2017-Oct-18 04:30N 48°54' W 123°16'815.9
2017-Oct-18 04:00N 49°00' W 123°08'0 0.0
2017-Oct-18 03:31N 49°00' W 123°08'918.3
2017-Oct-18 03:01N 48°53' W 123°17'714.2
2017-Oct-18 02:30N 48°47' W 123°21'6 7.1
2017-Oct-18 01:42N 48°41' W 123°25'2 8.0
2017-Oct-18 01:30N 48°42' W 123°22'1019.2
2017-Oct-18 01:00N 48°51' W 123°21'918.7
2017-Oct-18 00:30N 48°58' W 123°11'3 6.2
2017-Oct-17 23:59N 49°00' W 123°08'1 2.7
2017-Oct-17 23:30N 48°59' W 123°09'1019.1
2017-Oct-17 23:00N 48°52' W 123°18'816.1
2017-Oct-17 22:30N 48°44' W 123°24'3 5.7
2017-Oct-17 21:56N 48°41' W 123°25'2 4.2
2017-Oct-17 21:30N 48°42' W 123°22'918.9
2017-Oct-17 21:01N 48°51' W 123°21'713.2
2017-Oct-17 20:31N 48°56' W 123°15'612.3
2017-Oct-17 20:00N 49°00' W 123°08'0 0.4
2017-Oct-17 19:30N 49°00' W 123°08'918.2
2017-Oct-17 19:00N 48°53' W 123°17'816.8
2017-Oct-17 18:30N 48°45' W 123°22'4 6.2
2017-Oct-17 17:48N 48°41' W 123°25'1 2.6
2017-Oct-17 17:30N 48°42' W 123°24'917.9
2017-Oct-17 17:00N 48°50' W 123°21'611.6
2017-Oct-17 16:30N 48°55' W 123°16'715.0
2017-Oct-17 16:00N 49°00' W 123°08'0 0.0
2017-Oct-17 15:30N 49°00' W 123°08'816.1
2017-Oct-17 15:01N 48°54' W 123°16'714.2
2017-Oct-17 14:30N 48°48' W 123°21'710.9
2017-Oct-17 13:52N 48°41' W 123°25'0 0.0
2017-Oct-17 13:29N 48°41' W 123°25'0 0.0
2017-Oct-17 05:31N 48°41' W 123°25'0 0.6
2017-Oct-17 05:30N 48°41' W 123°25'714.2
2017-Oct-17 05:00N 48°48' W 123°20'714.8
2017-Oct-17 04:30N 48°55' W 123°16'815.5
2017-Oct-17 04:00N 49°00' W 123°08'0 0.5
2017-Oct-17 03:30N 49°00' W 123°08'918.6
2017-Oct-17 03:00N 48°53' W 123°17'714.6
2017-Oct-17 02:30N 48°46' W 123°21'5 6.5
2017-Oct-17 01:42N 48°41' W 123°25'2 8.6
2017-Oct-17 01:30N 48°42' W 123°22'1019.0
2017-Oct-17 01:00N 48°51' W 123°21'918.5
2017-Oct-17 00:30N 48°58' W 123°11'3 6.7
2017-Oct-17 00:00N 49°00' W 123°08'1 2.4
2017-Oct-16 23:31N 48°59' W 123°09'1019.2
2017-Oct-16 23:00N 48°52' W 123°18'916.1
2017-Oct-16 22:26N 48°44' W 123°25'2 3.1
2017-Oct-16 21:42N 48°41' W 123°25'1 3.5
2017-Oct-16 21:30N 48°42' W 123°24'817.0
2017-Oct-16 21:00N 48°50' W 123°21'815.4
2017-Oct-16 20:30N 48°56' W 123°14'611.7
2017-Oct-16 20:00N 49°00' W 123°08'0 0.1
2017-Oct-16 19:30N 49°00' W 123°08'816.5
2017-Oct-16 19:00N 48°54' W 123°16'917.1
2017-Oct-16 18:30N 48°46' W 123°21'5 7.6
2017-Oct-16 17:47N 48°41' W 123°25'1 2.8
2017-Oct-16 17:30N 48°42' W 123°24'917.6
2017-Oct-16 17:01N 48°50' W 123°21'815.7
2017-Oct-16 16:30N 48°57' W 123°14'511.0
2017-Oct-16 16:01N 49°00' W 123°08'0 0.2
2017-Oct-16 15:30N 49°00' W 123°08'816.7
2017-Oct-16 15:00N 48°54' W 123°16'1413.4
2017-Oct-16 13:59N 48°41' W 123°25'0 0.0
2017-Oct-16 07:27N 48°41' W 123°25'0 0.0
2017-Oct-16 06:51N 48°41' W 123°25'0 0.1
2017-Oct-16 05:37N 48°41' W 123°25'214.1
2017-Oct-16 05:30N 48°42' W 123°22'1019.3
2017-Oct-16 05:00N 48°51' W 123°21'815.8
2017-Oct-16 04:30N 48°57' W 123°13'5 9.1
2017-Oct-16 04:00N 49°00' W 123°08'0 1.0
2017-Oct-16 03:30N 49°00' W 123°08'918.4
2017-Oct-16 03:00N 48°53' W 123°17'815.1
2017-Oct-16 02:31N 48°46' W 123°22'5 4.9
2017-Oct-16 01:31N 48°41' W 123°24'012.1
2017-Oct-16 01:30N 48°42' W 123°24'918.0
2017-Oct-16 01:00N 48°50' W 123°21'918.2
2017-Oct-16 00:30N 48°57' W 123°11'4 8.7
2017-Oct-16 00:00N 49°00' W 123°08'1 2.7
2017-Oct-15 23:30N 48°59' W 123°09'1019.4
2017-Oct-15 23:00N 48°52' W 123°19'815.7
2017-Oct-15 22:29N 48°44' W 123°24'3 3.6
2017-Oct-15 21:39N 48°41' W 123°25'1 5.8
2017-Oct-15 21:30N 48°42' W 123°24'817.0
2017-Oct-15 21:00N 48°50' W 123°21'714.5
2017-Oct-15 20:30N 48°56' W 123°15'612.7
2017-Oct-15 20:00N 49°00' W 123°08'0 0.2
2017-Oct-15 19:30N 49°00' W 123°08'916.8
2017-Oct-15 19:00N 48°54' W 123°16'816.5
2017-Oct-15 18:30N 48°46' W 123°21'5 5.7
2017-Oct-15 17:33N 48°41' W 123°25'0 1.9
2017-Oct-15 17:29N 48°41' W 123°25'715.3
2017-Oct-15 17:00N 48°48' W 123°21'714.7
2017-Oct-15 16:31N 48°55' W 123°16'815.1
2017-Oct-15 16:00N 49°00' W 123°08'0 0.2
2017-Oct-15 15:30N 49°00' W 123°08'816.4
2017-Oct-15 15:00N 48°54' W 123°16'14 1.4
2017-Oct-15 05:32N 48°41' W 123°25'0 7.1
2017-Oct-15 05:30N 48°41' W 123°24'816.7
2017-Oct-15 05:00N 48°50' W 123°21'815.1
2017-Oct-15 04:30N 48°56' W 123°15'612.5
2017-Oct-15 04:00N 49°00' W 123°08'1 2.4
2017-Oct-15 03:31N 48°59' W 123°09'918.9
2017-Oct-15 03:01N 48°52' W 123°18'815.3
2017-Oct-15 02:30N 48°45' W 123°23'4 4.4
2017-Oct-15 01:38N 48°41' W 123°25'1 8.0
2017-Oct-15 01:31N 48°42' W 123°23'918.6
2017-Oct-15 01:01N 48°51' W 123°21'918.2
2017-Oct-15 00:30N 48°57' W 123°12'4 7.8
2017-Oct-15 00:00N 49°00' W 123°08'2 4.1
2017-Oct-14 23:30N 48°59' W 123°10'918.7
2017-Oct-14 23:00N 48°51' W 123°19'815.4
2017-Oct-14 22:29N 48°44' W 123°24'3 3.3
2017-Oct-14 21:38N 48°41' W 123°25'0 3.1
2017-Oct-14 21:30N 48°42' W 123°24'816.9
2017-Oct-14 21:01N 48°50' W 123°21'815.7
2017-Oct-14 20:30N 48°56' W 123°14'611.6
2017-Oct-14 20:00N 49°00' W 123°08'0 0.5
2017-Oct-14 19:30N 49°00' W 123°08'1019.6
2017-Oct-14 19:00N 48°53' W 123°18'815.4
2017-Oct-14 18:30N 48°45' W 123°21'5 4.9
2017-Oct-14 17:34N 48°41' W 123°25'0 5.8
2017-Oct-14 17:30N 48°41' W 123°24'817.1
2017-Oct-14 17:01N 48°50' W 123°21'714.7
2017-Oct-14 16:30N 48°56' W 123°15'612.5
2017-Oct-14 16:00N 49°00' W 123°08'0 0.1
2017-Oct-14 15:30N 49°00' W 123°08'714.3
2017-Oct-14 15:00N 48°55' W 123°15'815.7
2017-Oct-14 14:30N 48°48' W 123°21'713.9
2017-Oct-14 14:00N 48°41' W 123°25'0 0.0
2017-Oct-14 05:27N 48°41' W 123°25'715.8
2017-Oct-14 05:01N 48°48' W 123°21'815.4
2017-Oct-14 04:31N 48°55' W 123°16'815.3
2017-Oct-14 04:00N 49°00' W 123°08'1 1.0
2017-Oct-14 03:30N 48°60' W 123°08'817.0
2017-Oct-14 03:00N 48°53' W 123°16'815.4
2017-Oct-14 02:30N 48°46' W 123°21'510.7
2017-Oct-14 02:00N 48°41' W 123°25'2 3.0
2017-Oct-14 01:23N 48°42' W 123°22'920.2
2017-Oct-14 00:58N 48°50' W 123°21'916.6
2017-Oct-14 00:25N 48°57' W 123°12'4 9.9
2017-Oct-14 00:00N 49°00' W 123°08'0 0.6
2017-Oct-13 23:30N 49°00' W 123°08'918.9
2017-Oct-13 23:00N 48°53' W 123°17'714.3
2017-Oct-13 22:31N 48°46' W 123°21'510.5
2017-Oct-13 21:59N 48°41' W 123°25'0 0.6
2017-Oct-13 21:29N 48°41' W 123°24'816.8
2017-Oct-13 21:00N 48°49' W 123°21'714.2
2017-Oct-13 20:30N 48°55' W 123°15'713.9
2017-Oct-13 20:00N 49°00' W 123°08'0 0.0
2017-Oct-13 19:30N 49°00' W 123°08'815.9
2017-Oct-13 19:00N 48°54' W 123°16'816.1
2017-Oct-13 18:30N 48°47' W 123°21'6 6.4
2017-Oct-13 17:33N 48°41' W 123°25'0 1.7
2017-Oct-13 17:30N 48°41' W 123°25'815.2
2017-Oct-13 17:00N 48°49' W 123°21'714.7
2017-Oct-13 16:30N 48°55' W 123°16'714.6
2017-Oct-13 16:01N 49°00' W 123°08'0 0.0
2017-Oct-13 15:31N 49°00' W 123°08'714.8
2017-Oct-13 15:00N 48°55' W 123°15'814.8
2017-Oct-13 14:30N 48°48' W 123°21'7 0.8
2017-Oct-13 05:30N 48°41' W 123°25'613.1
2017-Oct-13 05:00N 48°47' W 123°21'816.0
2017-Oct-13 04:30N 48°55' W 123°16'815.6
2017-Oct-13 04:00N 49°00' W 123°08'0 0.0
2017-Oct-13 03:30N 49°00' W 123°08'816.4
2017-Oct-13 03:00N 48°54' W 123°16'816.3
2017-Oct-13 02:30N 48°47' W 123°21'6 6.5
2017-Oct-13 01:38N 48°41' W 123°25'0 3.7
2017-Oct-13 01:30N 48°42' W 123°24'917.4
2017-Oct-13 01:01N 48°50' W 123°21'815.6
2017-Oct-13 00:31N 48°56' W 123°14'611.3
2017-Oct-13 00:00N 49°00' W 123°08'0 0.0
2017-Oct-12 23:31N 49°00' W 123°08'816.9
2017-Oct-12 23:00N 48°54' W 123°16'714.4
2017-Oct-12 22:31N 48°47' W 123°21'6 6.2
2017-Oct-12 21:28N 48°41' W 123°25'715.0
2017-Oct-12 21:00N 48°48' W 123°21'816.6
2017-Oct-12 20:30N 48°55' W 123°15'713.8
2017-Oct-12 20:00N 49°00' W 123°08'0 0.0
2017-Oct-12 19:30N 49°00' W 123°08'815.6
2017-Oct-12 19:00N 48°54' W 123°16'815.3
2017-Oct-12 18:30N 48°47' W 123°21'7 8.6
2017-Oct-12 17:44N 48°41' W 123°25'0 1.2
2017-Oct-12 17:30N 48°41' W 123°24'816.1
2017-Oct-12 17:00N 48°49' W 123°21'815.0
2017-Oct-12 16:30N 48°55' W 123°15'713.5
2017-Oct-12 16:00N 49°00' W 123°08'0 0.0
2017-Oct-12 15:30N 49°00' W 123°08'815.1
2017-Oct-12 15:00N 48°54' W 123°15'816.1
2017-Oct-12 14:30N 48°47' W 123°21'610.0
2017-Oct-12 13:52N 48°41' W 123°25'0 0.0
2017-Oct-12 07:41N 48°41' W 123°25'0 0.0
2017-Oct-12 07:06N 48°41' W 123°25'0 0.0
2017-Oct-12 06:54N 48°41' W 123°25'0 0.0
2017-Oct-12 05:32N 48°41' W 123°25'0 4.9
2017-Oct-12 05:30N 48°41' W 123°25'816.2
2017-Oct-12 05:00N 48°49' W 123°21'713.5
2017-Oct-12 04:31N 48°55' W 123°16'714.5
2017-Oct-12 04:00N 49°00' W 123°08'0 0.4
2017-Oct-12 03:30N 49°00' W 123°08'918.4
2017-Oct-12 03:00N 48°53' W 123°17'816.2
2017-Oct-12 02:31N 48°46' W 123°22'5 4.9
2017-Oct-12 01:33N 48°41' W 123°25'0 1.7
2017-Oct-12 01:30N 48°41' W 123°25'816.2
2017-Oct-12 01:00N 48°49' W 123°21'713.8
2017-Oct-12 00:30N 48°55' W 123°15'714.4
2017-Oct-12 00:00N 49°00' W 123°08'0 0.1
2017-Oct-11 23:31N 49°00' W 123°08'917.4
2017-Oct-11 23:00N 48°54' W 123°16'714.8
2017-Oct-11 22:30N 48°47' W 123°21'6 6.0
2017-Oct-11 21:31N 48°41' W 123°25'0 1.0
2017-Oct-11 21:29N 48°41' W 123°25'816.5
2017-Oct-11 21:00N 48°49' W 123°21'917.7
2017-Oct-11 20:30N 48°56' W 123°14'611.0
2017-Oct-11 20:00N 49°00' W 123°08'0 0.4
2017-Oct-11 19:30N 49°00' W 123°08'816.6
2017-Oct-11 19:00N 48°54' W 123°16'714.4
2017-Oct-11 18:30N 48°47' W 123°21'6 6.7
2017-Oct-11 17:34N 48°41' W 123°25'0 3.5
2017-Oct-11 17:30N 48°41' W 123°24'816.0
2017-Oct-11 16:59N 48°49' W 123°21'14 0.8
2017-Oct-11 00:00N 49°00' W 123°08'0 0.1
2017-Oct-10 23:30N 49°00' W 123°08'714.6
2017-Oct-10 23:00N 48°55' W 123°15'815.0
2017-Oct-10 22:30N 48°48' W 123°21'7 7.1
2017-Oct-10 21:28N 48°41' W 123°25'613.1
2017-Oct-10 21:00N 48°47' W 123°21'816.7
2017-Oct-10 20:30N 48°54' W 123°15'815.4
2017-Oct-10 20:00N 49°00' W 123°08'0 0.1
2017-Oct-10 19:30N 49°00' W 123°08'816.1
2017-Oct-10 19:00N 48°54' W 123°16'714.3
2017-Oct-10 18:30N 48°48' W 123°21'712.4
2017-Oct-10 17:57N 48°41' W 123°25'0 0.3
2017-Oct-10 17:30N 48°41' W 123°25'816.2
2017-Oct-10 17:00N 48°49' W 123°21'714.0
2017-Oct-10 16:30N 48°55' W 123°16'714.6
2017-Oct-10 16:00N 49°00' W 123°08'0 0.0
2017-Oct-10 15:30N 49°00' W 123°08'714.2
2017-Oct-10 15:00N 48°55' W 123°15'1511.9
2017-Oct-10 13:45N 48°41' W 123°25'0 0.0
2017-Oct-10 05:34N 48°41' W 123°25'0 2.2
2017-Oct-10 05:29N 48°41' W 123°25'817.2
2017-Oct-10 05:00N 48°49' W 123°21'917.6
2017-Oct-10 04:30N 48°57' W 123°14'510.3
2017-Oct-10 04:00N 49°00' W 123°08'1 2.2
2017-Oct-10 03:30N 48°59' W 123°09'1019.5
2017-Oct-10 03:00N 48°52' W 123°18'815.8
2017-Oct-10 02:30N 48°45' W 123°23'3 3.6
2017-Oct-10 01:34N 48°41' W 123°25'0 3.6
2017-Oct-10 01:30N 48°41' W 123°24'817.1
2017-Oct-10 01:00N 48°49' W 123°21'713.6
2017-Oct-10 00:30N 48°55' W 123°15'713.9
2017-Oct-10 00:00N 49°00' W 123°08'0 0.0
2017-Oct-09 23:30N 49°00' W 123°08'917.2
2017-Oct-09 23:00N 48°54' W 123°17'815.9
2017-Oct-09 22:31N 48°47' W 123°21'6 5.8
2017-Oct-09 21:32N 48°41' W 123°25'0 1.3
2017-Oct-09 21:28N 48°41' W 123°25'816.2
2017-Oct-09 21:00N 48°49' W 123°21'816.5
2017-Oct-09 20:30N 48°56' W 123°15'612.7
2017-Oct-09 20:00N 49°00' W 123°08'0 0.0
2017-Oct-09 19:30N 49°00' W 123°08'917.1
2017-Oct-09 19:01N 48°54' W 123°16'714.2
2017-Oct-09 18:30N 48°47' W 123°21'6 6.4
2017-Oct-09 17:30N 48°41' W 123°25'815.3
2017-Oct-09 17:00N 48°48' W 123°21'713.5
2017-Oct-09 16:30N 48°55' W 123°16'815.9
2017-Oct-09 16:01N 49°00' W 123°08'0 0.0
2017-Oct-09 15:31N 49°00' W 123°08'815.3
2017-Oct-09 15:01N 48°54' W 123°15'815.0
2017-Oct-09 14:30N 48°48' W 123°21'7 0.7
2017-Oct-09 05:25N 48°41' W 123°25'615.8
2017-Oct-09 05:00N 48°47' W 123°21'816.4
2017-Oct-09 04:30N 48°55' W 123°16'815.2
2017-Oct-09 04:00N 49°00' W 123°08'0 0.0
2017-Oct-09 03:31N 49°00' W 123°08'816.0
2017-Oct-09 03:00N 48°54' W 123°16'713.2
2017-Oct-09 02:30N 48°48' W 123°21'7 7.1
2017-Oct-09 01:28N 48°41' W 123°25'715.8
2017-Oct-09 01:00N 48°48' W 123°21'714.5
2017-Oct-09 00:30N 48°55' W 123°16'815.3
2017-Oct-09 00:00N 49°00' W 123°08'0 0.1
2017-Oct-08 23:30N 49°00' W 123°08'815.2
2017-Oct-08 23:00N 48°54' W 123°15'714.7
2017-Oct-08 22:30N 48°48' W 123°21'711.6
2017-Oct-08 21:53N 48°41' W 123°25'0 0.1
2017-Oct-08 21:29N 48°41' W 123°25'816.8
2017-Oct-08 21:00N 48°49' W 123°21'816.2
2017-Oct-08 20:30N 48°56' W 123°14'612.0
2017-Oct-08 20:00N 49°00' W 123°08'0 0.2
2017-Oct-08 19:30N 49°00' W 123°08'917.6
2017-Oct-08 19:00N 48°53' W 123°17'713.9
2017-Oct-08 18:30N 48°47' W 123°21'6 6.6
2017-Oct-08 17:34N 48°41' W 123°25'0 1.4
2017-Oct-08 17:30N 48°41' W 123°25'816.8
2017-Oct-08 17:00N 48°49' W 123°21'917.6
2017-Oct-08 16:30N 48°57' W 123°15'510.9
2017-Oct-08 16:00N 49°00' W 123°08'1 1.1
2017-Oct-08 15:31N 48°60' W 123°09'713.2
2017-Oct-08 15:01N 48°55' W 123°15'714.9
2017-Oct-08 14:31N 48°48' W 123°21'  
Track history (hours):
 
Tides and Currents Weather Stations Pressure Air Temp Water Temp Dewpoint Dewpoint Depression Visibility Wind Speed Wind Dir Waves Ship Positions

Spirit Of Vi

Last reported at 2017-Oct-18 05:27 UTC. Time now 2017-Oct-18 09:16 UTC.
Position N 48°41' W 123°25'.

Length 168 m; draft 5 m.

Type: Ship. MMSI: 316001269.

Date/timePositionNaut miles runAvg speedWind from/ knotsBaromVisibWave heightAir tempDewpointWater temp
2017-Oct-18 05:27N 48°41' W 123°25'614.3
2017-Oct-18 05:00N 48°47' W 123°21'815.5
2017-Oct-18 04:30N 48°54' W 123°16'815.9
2017-Oct-18 04:00N 49°00' W 123°08'0 0.0
2017-Oct-18 03:31N 49°00' W 123°08'918.3
2017-Oct-18 03:01N 48°53' W 123°17'714.2
2017-Oct-18 02:30N 48°47' W 123°21'6 7.1
2017-Oct-18 01:42N 48°41' W 123°25'2 8.0
2017-Oct-18 01:30N 48°42' W 123°22'1019.2
2017-Oct-18 01:00N 48°51' W 123°21'918.7
2017-Oct-18 00:30N 48°58' W 123°11'3 6.2
2017-Oct-17 23:59N 49°00' W 123°08'1 2.7
2017-Oct-17 23:30N 48°59' W 123°09'1019.1
2017-Oct-17 23:00N 48°52' W 123°18'816.1
2017-Oct-17 22:30N 48°44' W 123°24'3 5.7
2017-Oct-17 21:56N 48°41' W 123°25'2 4.2
2017-Oct-17 21:30N 48°42' W 123°22'918.9
2017-Oct-17 21:01N 48°51' W 123°21'713.2
2017-Oct-17 20:31N 48°56' W 123°15'612.3
2017-Oct-17 20:00N 49°00' W 123°08'0 0.4
2017-Oct-17 19:30N 49°00' W 123°08'918.2
2017-Oct-17 19:00N 48°53' W 123°17'816.8
2017-Oct-17 18:30N 48°45' W 123°22'4 6.2
2017-Oct-17 17:48N 48°41' W 123°25'1 2.6
2017-Oct-17 17:30N 48°42' W 123°24'917.9
2017-Oct-17 17:00N 48°50' W 123°21'611.6
2017-Oct-17 16:30N 48°55' W 123°16'715.0
2017-Oct-17 16:00N 49°00' W 123°08'0 0.0
2017-Oct-17 15:30N 49°00' W 123°08'816.1
2017-Oct-17 15:01N 48°54' W 123°16'714.2
2017-Oct-17 14:30N 48°48' W 123°21'710.9
2017-Oct-17 13:52N 48°41' W 123°25'0 0.0
2017-Oct-17 13:29N 48°41' W 123°25'0 0.0
2017-Oct-17 05:31N 48°41' W 123°25'0 0.6
2017-Oct-17 05:30N 48°41' W 123°25'714.2
2017-Oct-17 05:00N 48°48' W 123°20'714.8
2017-Oct-17 04:30N 48°55' W 123°16'815.5
2017-Oct-17 04:00N 49°00' W 123°08'0 0.5
2017-Oct-17 03:30N 49°00' W 123°08'918.6
2017-Oct-17 03:00N 48°53' W 123°17'714.6
2017-Oct-17 02:30N 48°46' W 123°21'5 6.5
2017-Oct-17 01:42N 48°41' W 123°25'2 8.6
2017-Oct-17 01:30N 48°42' W 123°22'1019.0
2017-Oct-17 01:00N 48°51' W 123°21'918.5
2017-Oct-17 00:30N 48°58' W 123°11'3 6.7
2017-Oct-17 00:00N 49°00' W 123°08'1 2.4
2017-Oct-16 23:31N 48°59' W 123°09'1019.2
2017-Oct-16 23:00N 48°52' W 123°18'916.1
2017-Oct-16 22:26N 48°44' W 123°25'2 3.1
2017-Oct-16 21:42N 48°41' W 123°25'1 3.5
2017-Oct-16 21:30N 48°42' W 123°24'817.0
2017-Oct-16 21:00N 48°50' W 123°21'815.4
2017-Oct-16 20:30N 48°56' W 123°14'611.7
2017-Oct-16 20:00N 49°00' W 123°08'0 0.1
2017-Oct-16 19:30N 49°00' W 123°08'816.5
2017-Oct-16 19:00N 48°54' W 123°16'917.1
2017-Oct-16 18:30N 48°46' W 123°21'5 7.6
2017-Oct-16 17:47N 48°41' W 123°25'1 2.8
2017-Oct-16 17:30N 48°42' W 123°24'917.6
2017-Oct-16 17:01N 48°50' W 123°21'815.7
2017-Oct-16 16:30N 48°57' W 123°14'511.0
2017-Oct-16 16:01N 49°00' W 123°08'0 0.2
2017-Oct-16 15:30N 49°00' W 123°08'816.7
2017-Oct-16 15:00N 48°54' W 123°16'1413.4
2017-Oct-16 13:59N 48°41' W 123°25'0 0.0
2017-Oct-16 07:27N 48°41' W 123°25'0 0.0
2017-Oct-16 06:51N 48°41' W 123°25'0 0.1
2017-Oct-16 05:37N 48°41' W 123°25'214.1
2017-Oct-16 05:30N 48°42' W 123°22'1019.3
2017-Oct-16 05:00N 48°51' W 123°21'815.8
2017-Oct-16 04:30N 48°57' W 123°13'5 9.1
2017-Oct-16 04:00N 49°00' W 123°08'0 1.0
2017-Oct-16 03:30N 49°00' W 123°08'918.4
2017-Oct-16 03:00N 48°53' W 123°17'815.1
2017-Oct-16 02:31N 48°46' W 123°22'5 4.9
2017-Oct-16 01:31N 48°41' W 123°24'012.1
2017-Oct-16 01:30N 48°42' W 123°24'918.0
2017-Oct-16 01:00N 48°50' W 123°21'918.2
2017-Oct-16 00:30N 48°57' W 123°11'4 8.7
2017-Oct-16 00:00N 49°00' W 123°08'1 2.7
2017-Oct-15 23:30N 48°59' W 123°09'1019.4
2017-Oct-15 23:00N 48°52' W 123°19'815.7
2017-Oct-15 22:29N 48°44' W 123°24'3 3.6
2017-Oct-15 21:39N 48°41' W 123°25'1 5.8
2017-Oct-15 21:30N 48°42' W 123°24'817.0
2017-Oct-15 21:00N 48°50' W 123°21'714.5
2017-Oct-15 20:30N 48°56' W 123°15'612.7
2017-Oct-15 20:00N 49°00' W 123°08'0 0.2
2017-Oct-15 19:30N 49°00' W 123°08'916.8
2017-Oct-15 19:00N 48°54' W 123°16'816.5
2017-Oct-15 18:30N 48°46' W 123°21'5 5.7
2017-Oct-15 17:33N 48°41' W 123°25'0 1.9
2017-Oct-15 17:29N 48°41' W 123°25'715.3
2017-Oct-15 17:00N 48°48' W 123°21'714.7
2017-Oct-15 16:31N 48°55' W 123°16'815.1
2017-Oct-15 16:00N 49°00' W 123°08'0 0.2
2017-Oct-15 15:30N 49°00' W 123°08'816.4
2017-Oct-15 15:00N 48°54' W 123°16'14 1.4
2017-Oct-15 05:32N 48°41' W 123°25'0 7.1
2017-Oct-15 05:30N 48°41' W 123°24'816.7
2017-Oct-15 05:00N 48°50' W 123°21'815.1
2017-Oct-15 04:30N 48°56' W 123°15'612.5
2017-Oct-15 04:00N 49°00' W 123°08'1 2.4
2017-Oct-15 03:31N 48°59' W 123°09'918.9
2017-Oct-15 03:01N 48°52' W 123°18'815.3
2017-Oct-15 02:30N 48°45' W 123°23'4 4.4
2017-Oct-15 01:38N 48°41' W 123°25'1 8.0
2017-Oct-15 01:31N 48°42' W 123°23'918.6
2017-Oct-15 01:01N 48°51' W 123°21'918.2
2017-Oct-15 00:30N 48°57' W 123°12'4 7.8
2017-Oct-15 00:00N 49°00' W 123°08'2 4.1
2017-Oct-14 23:30N 48°59' W 123°10'918.7
2017-Oct-14 23:00N 48°51' W 123°19'815.4
2017-Oct-14 22:29N 48°44' W 123°24'3 3.3
2017-Oct-14 21:38N 48°41' W 123°25'0 3.1
2017-Oct-14 21:30N 48°42' W 123°24'816.9
2017-Oct-14 21:01N 48°50' W 123°21'815.7
2017-Oct-14 20:30N 48°56' W 123°14'611.6
2017-Oct-14 20:00N 49°00' W 123°08'0 0.5
2017-Oct-14 19:30N 49°00' W 123°08'1019.6
2017-Oct-14 19:00N 48°53' W 123°18'815.4
2017-Oct-14 18:30N 48°45' W 123°21'5 4.9
2017-Oct-14 17:34N 48°41' W 123°25'0 5.8
2017-Oct-14 17:30N 48°41' W 123°24'817.1
2017-Oct-14 17:01N 48°50' W 123°21'714.7
2017-Oct-14 16:30N 48°56' W 123°15'612.5
2017-Oct-14 16:00N 49°00' W 123°08'0 0.1
2017-Oct-14 15:30N 49°00' W 123°08'714.3
2017-Oct-14 15:00N 48°55' W 123°15'815.7
2017-Oct-14 14:30N 48°48' W 123°21'713.9
2017-Oct-14 14:00N 48°41' W 123°25'0 0.0
2017-Oct-14 05:27N 48°41' W 123°25'715.8
2017-Oct-14 05:01N 48°48' W 123°21'815.4
2017-Oct-14 04:31N 48°55' W 123°16'815.3
2017-Oct-14 04:00N 49°00' W 123°08'1 1.0
2017-Oct-14 03:30N 48°60' W 123°08'817.0
2017-Oct-14 03:00N 48°53' W 123°16'815.4
2017-Oct-14 02:30N 48°46' W 123°21'510.7
2017-Oct-14 02:00N 48°41' W 123°25'2 3.0
2017-Oct-14 01:23N 48°42' W 123°22'920.2
2017-Oct-14 00:58N 48°50' W 123°21'916.6
2017-Oct-14 00:25N 48°57' W 123°12'4 9.9
2017-Oct-14 00:00N 49°00' W 123°08'0 0.6
2017-Oct-13 23:30N 49°00' W 123°08'918.9
2017-Oct-13 23:00N 48°53' W 123°17'714.3
2017-Oct-13 22:31N 48°46' W 123°21'510.5
2017-Oct-13 21:59N 48°41' W 123°25'0 0.6
2017-Oct-13 21:29N 48°41' W 123°24'816.8
2017-Oct-13 21:00N 48°49' W 123°21'714.2
2017-Oct-13 20:30N 48°55' W 123°15'713.9
2017-Oct-13 20:00N 49°00' W 123°08'0 0.0
2017-Oct-13 19:30N 49°00' W 123°08'815.9
2017-Oct-13 19:00N 48°54' W 123°16'816.1
2017-Oct-13 18:30N 48°47' W 123°21'6 6.4
2017-Oct-13 17:33N 48°41' W 123°25'0 1.7
2017-Oct-13 17:30N 48°41' W 123°25'815.2
2017-Oct-13 17:00N 48°49' W 123°21'714.7
2017-Oct-13 16:30N 48°55' W 123°16'714.6
2017-Oct-13 16:01N 49°00' W 123°08'0 0.0
2017-Oct-13 15:31N 49°00' W 123°08'714.8
2017-Oct-13 15:00N 48°55' W 123°15'814.8
2017-Oct-13 14:30N 48°48' W 123°21'7 0.8
2017-Oct-13 05:30N 48°41' W 123°25'613.1
2017-Oct-13 05:00N 48°47' W 123°21'816.0
2017-Oct-13 04:30N 48°55' W 123°16'815.6
2017-Oct-13 04:00N 49°00' W 123°08'0 0.0
2017-Oct-13 03:30N 49°00' W 123°08'816.4
2017-Oct-13 03:00N 48°54' W 123°16'816.3
2017-Oct-13 02:30N 48°47' W 123°21'6 6.5
2017-Oct-13 01:38N 48°41' W 123°25'0 3.7
2017-Oct-13 01:30N 48°42' W 123°24'917.4
2017-Oct-13 01:01N 48°50' W 123°21'815.6
2017-Oct-13 00:31N 48°56' W 123°14'611.3
2017-Oct-13 00:00N 49°00' W 123°08'0 0.0
2017-Oct-12 23:31N 49°00' W 123°08'816.9
2017-Oct-12 23:00N 48°54' W 123°16'714.4
2017-Oct-12 22:31N 48°47' W 123°21'6 6.2
2017-Oct-12 21:28N 48°41' W 123°25'715.0
2017-Oct-12 21:00N 48°48' W 123°21'816.6
2017-Oct-12 20:30N 48°55' W 123°15'713.8
2017-Oct-12 20:00N 49°00' W 123°08'0 0.0
2017-Oct-12 19:30N 49°00' W 123°08'815.6
2017-Oct-12 19:00N 48°54' W 123°16'815.3
2017-Oct-12 18:30N 48°47' W 123°21'7 8.6
2017-Oct-12 17:44N 48°41' W 123°25'0 1.2
2017-Oct-12 17:30N 48°41' W 123°24'816.1
2017-Oct-12 17:00N 48°49' W 123°21'815.0
2017-Oct-12 16:30N 48°55' W 123°15'713.5
2017-Oct-12 16:00N 49°00' W 123°08'0 0.0
2017-Oct-12 15:30N 49°00' W 123°08'815.1
2017-Oct-12 15:00N 48°54' W 123°15'816.1
2017-Oct-12 14:30N 48°47' W 123°21'610.0
2017-Oct-12 13:52N 48°41' W 123°25'0 0.0
2017-Oct-12 07:41N 48°41' W 123°25'0 0.0
2017-Oct-12 07:06N 48°41' W 123°25'0 0.0
2017-Oct-12 06:54N 48°41' W 123°25'0 0.0
2017-Oct-12 05:32N 48°41' W 123°25'0 4.9
2017-Oct-12 05:30N 48°41' W 123°25'816.2
2017-Oct-12 05:00N 48°49' W 123°21'713.5
2017-Oct-12 04:31N 48°55' W 123°16'714.5
2017-Oct-12 04:00N 49°00' W 123°08'0 0.4
2017-Oct-12 03:30N 49°00' W 123°08'918.4
2017-Oct-12 03:00N 48°53' W 123°17'816.2
2017-Oct-12 02:31N 48°46' W 123°22'5 4.9
2017-Oct-12 01:33N 48°41' W 123°25'0 1.7
2017-Oct-12 01:30N 48°41' W 123°25'816.2
2017-Oct-12 01:00N 48°49' W 123°21'713.8
2017-Oct-12 00:30N 48°55' W 123°15'714.4
2017-Oct-12 00:00N 49°00' W 123°08'0 0.1
2017-Oct-11 23:31N 49°00' W 123°08'917.4
2017-Oct-11 23:00N 48°54' W 123°16'714.8
2017-Oct-11 22:30N 48°47' W 123°21'6 6.0
2017-Oct-11 21:31N 48°41' W 123°25'0 1.0
2017-Oct-11 21:29N 48°41' W 123°25'816.5
2017-Oct-11 21:00N 48°49' W 123°21'917.7
2017-Oct-11 20:30N 48°56' W 123°14'611.0
2017-Oct-11 20:00N 49°00' W 123°08'0 0.4
2017-Oct-11 19:30N 49°00' W 123°08'816.6
2017-Oct-11 19:00N 48°54' W 123°16'714.4
2017-Oct-11 18:30N 48°47' W 123°21'6 6.7
2017-Oct-11 17:34N 48°41' W 123°25'0 3.5
2017-Oct-11 17:30N 48°41' W 123°24'816.0
2017-Oct-11 16:59N 48°49' W 123°21'14 0.8
2017-Oct-11 00:00N 49°00' W 123°08'0 0.1
2017-Oct-10 23:30N 49°00' W 123°08'714.6
2017-Oct-10 23:00N 48°55' W 123°15'815.0
2017-Oct-10 22:30N 48°48' W 123°21'7 7.1
2017-Oct-10 21:28N 48°41' W 123°25'613.1
2017-Oct-10 21:00N 48°47' W 123°21'816.7
2017-Oct-10 20:30N 48°54' W 123°15'815.4
2017-Oct-10 20:00N 49°00' W 123°08'0 0.1
2017-Oct-10 19:30N 49°00' W 123°08'816.1
2017-Oct-10 19:00N 48°54' W 123°16'714.3
2017-Oct-10 18:30N 48°48' W 123°21'712.4
2017-Oct-10 17:57N 48°41' W 123°25'0 0.3
2017-Oct-10 17:30N 48°41' W 123°25'816.2
2017-Oct-10 17:00N 48°49' W 123°21'714.0
2017-Oct-10 16:30N 48°55' W 123°16'714.6
2017-Oct-10 16:00N 49°00' W 123°08'0 0.0
2017-Oct-10 15:30N 49°00' W 123°08'714.2
2017-Oct-10 15:00N 48°55' W 123°15'1511.9
2017-Oct-10 13:45N 48°41' W 123°25'0 0.0
2017-Oct-10 05:34N 48°41' W 123°25'0 2.2
2017-Oct-10 05:29N 48°41' W 123°25'817.2
2017-Oct-10 05:00N 48°49' W 123°21'917.6
2017-Oct-10 04:30N 48°57' W 123°14'510.3
2017-Oct-10 04:00N 49°00' W 123°08'1 2.2
2017-Oct-10 03:30N 48°59' W 123°09'1019.5
2017-Oct-10 03:00N 48°52' W 123°18'815.8
2017-Oct-10 02:30N 48°45' W 123°23'3 3.6
2017-Oct-10 01:34N 48°41' W 123°25'0 3.6
2017-Oct-10 01:30N 48°41' W 123°24'817.1
2017-Oct-10 01:00N 48°49' W 123°21'713.6
2017-Oct-10 00:30N 48°55' W 123°15'713.9
2017-Oct-10 00:00N 49°00' W 123°08'0 0.0
2017-Oct-09 23:30N 49°00' W 123°08'917.2
2017-Oct-09 23:00N 48°54' W 123°17'815.9
2017-Oct-09 22:31N 48°47' W 123°21'6 5.8
2017-Oct-09 21:32N 48°41' W 123°25'0 1.3
2017-Oct-09 21:28N 48°41' W 123°25'816.2
2017-Oct-09 21:00N 48°49' W 123°21'816.5
2017-Oct-09 20:30N 48°56' W 123°15'612.7
2017-Oct-09 20:00N 49°00' W 123°08'0 0.0
2017-Oct-09 19:30N 49°00' W 123°08'917.1
2017-Oct-09 19:01N 48°54' W 123°16'714.2
2017-Oct-09 18:30N 48°47' W 123°21'6 6.4
2017-Oct-09 17:30N 48°41' W 123°25'815.3
2017-Oct-09 17:00N 48°48' W 123°21'713.5
2017-Oct-09 16:30N 48°55' W 123°16'815.9
2017-Oct-09 16:01N 49°00' W 123°08'0 0.0
2017-Oct-09 15:31N 49°00' W 123°08'815.3
2017-Oct-09 15:01N 48°54' W 123°15'815.0
2017-Oct-09 14:30N 48°48' W 123°21'7 0.7
2017-Oct-09 05:25N 48°41' W 123°25'615.8
2017-Oct-09 05:00N 48°47' W 123°21'816.4
2017-Oct-09 04:30N 48°55' W 123°16'815.2
2017-Oct-09 04:00N 49°00' W 123°08'0 0.0
2017-Oct-09 03:31N 49°00' W 123°08'816.0
2017-Oct-09 03:00N 48°54' W 123°16'713.2
2017-Oct-09 02:30N 48°48' W 123°21'7 7.1
2017-Oct-09 01:28N 48°41' W 123°25'715.8
2017-Oct-09 01:00N 48°48' W 123°21'714.5
2017-Oct-09 00:30N 48°55' W 123°16'815.3
2017-Oct-09 00:00N 49°00' W 123°08'0 0.1
2017-Oct-08 23:30N 49°00' W 123°08'815.2
2017-Oct-08 23:00N 48°54' W 123°15'714.7
2017-Oct-08 22:30N 48°48' W 123°21'711.6
2017-Oct-08 21:53N 48°41' W 123°25'0 0.1
2017-Oct-08 21:29N 48°41' W 123°25'816.8
2017-Oct-08 21:00N 48°49' W 123°21'816.2
2017-Oct-08 20:30N 48°56' W 123°14'612.0
2017-Oct-08 20:00N 49°00' W 123°08'0 0.2
2017-Oct-08 19:30N 49°00' W 123°08'917.6
2017-Oct-08 19:00N 48°53' W 123°17'713.9
2017-Oct-08 18:30N 48°47' W 123°21'6 6.6
2017-Oct-08 17:34N 48°41' W 123°25'0 1.4
2017-Oct-08 17:30N 48°41' W 123°25'816.8
2017-Oct-08 17:00N 48°49' W 123°21'917.6
2017-Oct-08 16:30N 48°57' W 123°15'510.9
2017-Oct-08 16:00N 49°00' W 123°08'1 1.1
2017-Oct-08 15:31N 48°60' W 123°09'713.2
2017-Oct-08 15:01N 48°55' W 123°15'714.9
2017-Oct-08 14:31N 48°48' W 123°21'  

Dump ship's entire track history